sensor_id;sensor_type;location;lat;lon;timestamp;pressure;altitude;pressure_sealevel;temperature;humidity
14269;BME280;7218;51.480;7.006;2023-02-18T00:00:13;101219.25;;;13.47;100.00
14269;BME280;7218;51.480;7.006;2023-02-18T00:02:41;101225.75;;;13.25;100.00
14269;BME280;7218;51.480;7.006;2023-02-18T00:05:08;101228.09;;;13.40;100.00
14269;BME280;7218;51.480;7.006;2023-02-18T00:07:35;101223.00;;;13.32;100.00
14269;BME280;7218;51.480;7.006;2023-02-18T00:10:03;101225.53;;;13.39;100.00
14269;BME280;7218;51.480;7.006;2023-02-18T00:12:30;101224.63;;;13.40;100.00
14269;BME280;7218;51.480;7.006;2023-02-18T00:14:58;101230.72;;;13.40;100.00
14269;BME280;7218;51.480;7.006;2023-02-18T00:17:25;101238.94;;;13.17;100.00
14269;BME280;7218;51.480;7.006;2023-02-18T00:19:52;101228.94;;;13.44;100.00
14269;BME280;7218;51.480;7.006;2023-02-18T00:22:18;101218.72;;;13.27;100.00
14269;BME280;7218;51.480;7.006;2023-02-18T00:24:45;101207.13;;;13.42;100.00
14269;BME280;7218;51.480;7.006;2023-02-18T00:27:11;101215.88;;;12.79;100.00
14269;BME280;7218;51.480;7.006;2023-02-18T00:29:38;101209.38;;;13.08;100.00
14269;BME280;7218;51.480;7.006;2023-02-18T00:32:06;101206.75;;;13.06;100.00
14269;BME280;7218;51.480;7.006;2023-02-18T00:34:33;101188.09;;;13.30;100.00
14269;BME280;7218;51.480;7.006;2023-02-18T00:36:59;101194.44;;;13.16;100.00
14269;BME280;7218;51.480;7.006;2023-02-18T00:39:26;101185.75;;;13.11;100.00
14269;BME280;7218;51.480;7.006;2023-02-18T00:41:53;101196.88;;;13.26;100.00
14269;BME280;7218;51.480;7.006;2023-02-18T00:44:20;101201.00;;;13.43;100.00
14269;BME280;7218;51.480;7.006;2023-02-18T00:46:47;101201.66;;;12.97;100.00
14269;BME280;7218;51.480;7.006;2023-02-18T00:49:15;101188.53;;;13.57;100.00
14269;BME280;7218;51.480;7.006;2023-02-18T00:51:42;101194.81;;;12.90;100.00
14269;BME280;7218;51.480;7.006;2023-02-18T00:54:09;101177.03;;;13.10;100.00
14269;BME280;7218;51.480;7.006;2023-02-18T00:56:35;101179.59;;;13.16;100.00
14269;BME280;7218;51.480;7.006;2023-02-18T00:59:02;101179.50;;;13.21;100.00
14269;BME280;7218;51.480;7.006;2023-02-18T01:01:29;101181.16;;;12.65;100.00
14269;BME280;7218;51.480;7.006;2023-02-18T01:03:55;101167.66;;;12.95;100.00
14269;BME280;7218;51.480;7.006;2023-02-18T01:06:23;101161.53;;;12.97;100.00
14269;BME280;7218;51.480;7.006;2023-02-18T01:08:49;101156.13;;;13.09;100.00
14269;BME280;7218;51.480;7.006;2023-02-18T01:11:16;101164.78;;;13.14;100.00
14269;BME280;7218;51.480;7.006;2023-02-18T01:13:42;101169.81;;;13.26;100.00
14269;BME280;7218;51.480;7.006;2023-02-18T01:16:09;101166.31;;;13.27;100.00
14269;BME280;7218;51.480;7.006;2023-02-18T01:18:36;101161.59;;;12.90;100.00
14269;BME280;7218;51.480;7.006;2023-02-18T01:21:03;101163.44;;;12.85;100.00
14269;BME280;7218;51.480;7.006;2023-02-18T01:23:34;101170.31;;;12.92;100.00
14269;BME280;7218;51.480;7.006;2023-02-18T01:26:00;101166.06;;;13.42;100.00
14269;BME280;7218;51.480;7.006;2023-02-18T01:28:26;101166.91;;;12.87;100.00
14269;BME280;7218;51.480;7.006;2023-02-18T01:30:53;101156.19;;;13.03;100.00
14269;BME280;7218;51.480;7.006;2023-02-18T01:33:20;101160.34;;;13.19;100.00
14269;BME280;7218;51.480;7.006;2023-02-18T01:35:47;101161.28;;;12.52;100.00
14269;BME280;7218;51.480;7.006;2023-02-18T01:38:14;101150.19;;;12.96;100.00
14269;BME280;7218;51.480;7.006;2023-02-18T01:40:48;101156.19;;;13.04;100.00
14269;BME280;7218;51.480;7.006;2023-02-18T01:43:16;101147.47;;;13.04;100.00
14269;BME280;7218;51.480;7.006;2023-02-18T01:46:14;101141.97;;;13.22;100.00
14269;BME280;7218;51.480;7.006;2023-02-18T01:48:44;101136.81;;;12.58;100.00
14269;BME280;7218;51.480;7.006;2023-02-18T01:51:14;101140.47;;;13.04;100.00
14269;BME280;7218;51.480;7.006;2023-02-18T01:53:47;101138.25;;;12.77;100.00
14269;BME280;7218;51.480;7.006;2023-02-18T01:56:22;101143.00;;;13.12;100.00
14269;BME280;7218;51.480;7.006;2023-02-18T01:58:50;101137.41;;;12.76;100.00
14269;BME280;7218;51.480;7.006;2023-02-18T02:01:17;101136.38;;;12.86;100.00
14269;BME280;7218;51.480;7.006;2023-02-18T02:03:44;101138.25;;;12.80;100.00
14269;BME280;7218;51.480;7.006;2023-02-18T02:06:14;101126.09;;;13.31;100.00
14269;BME280;7218;51.480;7.006;2023-02-18T02:08:43;101127.94;;;12.66;100.00
14269;BME280;7218;51.480;7.006;2023-02-18T02:11:20;101126.78;;;13.41;100.00
14269;BME280;7218;51.480;7.006;2023-02-18T02:14:04;101125.09;;;13.38;100.00
14269;BME280;7218;51.480;7.006;2023-02-18T02:16:37;101112.53;;;13.05;100.00
14269;BME280;7218;51.480;7.006;2023-02-18T02:19:24;101122.75;;;13.23;100.00
14269;BME280;7218;51.480;7.006;2023-02-18T02:25:06;101120.81;;;13.34;100.00
14269;BME280;7218;51.480;7.006;2023-02-18T02:27:52;101113.16;;;13.20;100.00
14269;BME280;7218;51.480;7.006;2023-02-18T02:30:43;101099.28;;;13.15;100.00
14269;BME280;7218;51.480;7.006;2023-02-18T02:33:28;101107.56;;;12.86;100.00
14269;BME280;7218;51.480;7.006;2023-02-18T02:36:05;101099.13;;;12.69;100.00
14269;BME280;7218;51.480;7.006;2023-02-18T02:38:38;101093.50;;;12.95;100.00
14269;BME280;7218;51.480;7.006;2023-02-18T02:41:14;101096.72;;;13.11;100.00
14269;BME280;7218;51.480;7.006;2023-02-18T02:43:51;101091.63;;;13.02;100.00
14269;BME280;7218;51.480;7.006;2023-02-18T02:46:27;101096.75;;;13.09;100.00
14269;BME280;7218;51.480;7.006;2023-02-18T02:49:02;101095.19;;;12.98;100.00
14269;BME280;7218;51.480;7.006;2023-02-18T02:51:37;101094.97;;;13.14;100.00
14269;BME280;7218;51.480;7.006;2023-02-18T02:54:09;101086.25;;;13.12;100.00
14269;BME280;7218;51.480;7.006;2023-02-18T02:56:37;101083.03;;;12.95;100.00
14269;BME280;7218;51.480;7.006;2023-02-18T02:59:06;101083.13;;;12.89;100.00
14269;BME280;7218;51.480;7.006;2023-02-18T03:01:36;101083.22;;;12.83;100.00
14269;BME280;7218;51.480;7.006;2023-02-18T03:04:27;101071.94;;;12.78;100.00
14269;BME280;7218;51.480;7.006;2023-02-18T03:07:08;101072.41;;;13.03;100.00
14269;BME280;7218;51.480;7.006;2023-02-18T03:09:50;101063.84;;;12.93;100.00
14269;BME280;7218;51.480;7.006;2023-02-18T03:12:26;101053.88;;;12.61;100.00
14269;BME280;7218;51.480;7.006;2023-02-18T03:14:58;101052.25;;;13.09;100.00
14269;BME280;7218;51.480;7.006;2023-02-18T03:17:31;101050.63;;;12.47;100.00
14269;BME280;7218;51.480;7.006;2023-02-18T03:20:06;101040.91;;;13.09;100.00
14269;BME280;7218;51.480;7.006;2023-02-18T03:22:39;101027.88;;;12.50;100.00
14269;BME280;7218;51.480;7.006;2023-02-18T03:25:07;101025.88;;;12.69;100.00
14269;BME280;7218;51.480;7.006;2023-02-18T03:27:39;101031.34;;;12.54;100.00
14269;BME280;7218;51.480;7.006;2023-02-18T03:30:11;101024.59;;;12.93;100.00
14269;BME280;7218;51.480;7.006;2023-02-18T03:32:41;101009.28;;;12.69;100.00
14269;BME280;7218;51.480;7.006;2023-02-18T03:35:12;101023.16;;;12.19;100.00
14269;BME280;7218;51.480;7.006;2023-02-18T03:37:42;101016.69;;;12.41;100.00
14269;BME280;7218;51.480;7.006;2023-02-18T03:40:12;101001.28;;;12.24;100.00
14269;BME280;7218;51.480;7.006;2023-02-18T03:42:39;101007.91;;;12.46;100.00
14269;BME280;7218;51.480;7.006;2023-02-18T03:45:06;101005.66;;;12.21;100.00
14269;BME280;7218;51.480;7.006;2023-02-18T03:47:32;100999.97;;;12.51;100.00
14269;BME280;7218;51.480;7.006;2023-02-18T03:49:59;101011.03;;;12.12;100.00
14269;BME280;7218;51.480;7.006;2023-02-18T03:52:25;100997.94;;;12.70;100.00
14269;BME280;7218;51.480;7.006;2023-02-18T03:54:53;100994.31;;;12.22;100.00
14269;BME280;7218;51.480;7.006;2023-02-18T03:57:19;100992.97;;;12.53;100.00
14269;BME280;7218;51.480;7.006;2023-02-18T03:59:46;100996.63;;;12.43;100.00
14269;BME280;7218;51.480;7.006;2023-02-18T04:02:12;100989.41;;;12.59;100.00
14269;BME280;7218;51.480;7.006;2023-02-18T04:04:39;100988.44;;;12.64;100.00
14269;BME280;7218;51.480;7.006;2023-02-18T04:07:05;100989.09;;;12.75;100.00
14269;BME280;7218;51.480;7.006;2023-02-18T04:09:31;100984.91;;;12.65;100.00
14269;BME280;7218;51.480;7.006;2023-02-18T04:11:59;100993.13;;;12.42;100.00
14269;BME280;7218;51.480;7.006;2023-02-18T04:14:26;100984.63;;;12.30;100.00
14269;BME280;7218;51.480;7.006;2023-02-18T04:16:52;100984.88;;;12.12;100.00
14269;BME280;7218;51.480;7.006;2023-02-18T04:19:19;100970.16;;;12.06;100.00
14269;BME280;7218;51.480;7.006;2023-02-18T04:21:45;100975.06;;;12.26;100.00
14269;BME280;7218;51.480;7.006;2023-02-18T04:24:11;100976.06;;;12.19;100.00
14269;BME280;7218;51.480;7.006;2023-02-18T04:26:38;100963.31;;;12.54;100.00
14269;BME280;7218;51.480;7.006;2023-02-18T04:29:06;100969.38;;;12.56;100.00
14269;BME280;7218;51.480;7.006;2023-02-18T04:31:32;100962.22;;;12.14;100.00
14269;BME280;7218;51.480;7.006;2023-02-18T04:33:58;100954.88;;;12.35;100.00
14269;BME280;7218;51.480;7.006;2023-02-18T04:36:25;100954.16;;;12.27;100.00
14269;BME280;7218;51.480;7.006;2023-02-18T04:38:52;100945.34;;;12.33;100.00
14269;BME280;7218;51.480;7.006;2023-02-18T04:41:18;100944.72;;;12.16;100.00
14269;BME280;7218;51.480;7.006;2023-02-18T04:43:44;100945.72;;;12.10;100.00
14269;BME280;7218;51.480;7.006;2023-02-18T04:46:12;100945.34;;;12.34;100.00
14269;BME280;7218;51.480;7.006;2023-02-18T04:48:39;100943.69;;;12.27;100.00
14269;BME280;7218;51.480;7.006;2023-02-18T04:51:06;100939.44;;;12.74;100.00
14269;BME280;7218;51.480;7.006;2023-02-18T04:53:32;100938.19;;;11.87;100.00
14269;BME280;7218;51.480;7.006;2023-02-18T04:55:59;100942.63;;;11.82;100.00
14269;BME280;7218;51.480;7.006;2023-02-18T04:58:26;100921.25;;;12.14;100.00
14269;BME280;7218;51.480;7.006;2023-02-18T05:00:52;100929.59;;;12.36;100.00
14269;BME280;7218;51.480;7.006;2023-02-18T05:03:20;100917.13;;;11.99;100.00
14269;BME280;7218;51.480;7.006;2023-02-18T05:05:47;100923.50;;;11.79;100.00
14269;BME280;7218;51.480;7.006;2023-02-18T05:08:13;100915.78;;;12.29;100.00
14269;BME280;7218;51.480;7.006;2023-02-18T05:10:40;100913.44;;;12.11;100.00
14269;BME280;7218;51.480;7.006;2023-02-18T05:13:07;100906.13;;;11.76;100.00
14269;BME280;7218;51.480;7.006;2023-02-18T05:15:33;100912.13;;;11.81;100.00
14269;BME280;7218;51.480;7.006;2023-02-18T05:18:00;100904.72;;;12.11;100.00
14269;BME280;7218;51.480;7.006;2023-02-18T05:20:28;100918.38;;;11.73;100.00
14269;BME280;7218;51.480;7.006;2023-02-18T05:22:54;100902.41;;;11.91;100.00
14269;BME280;7218;51.480;7.006;2023-02-18T05:25:21;100901.69;;;11.81;100.00
14269;BME280;7218;51.480;7.006;2023-02-18T05:27:48;100894.53;;;11.95;100.00
14269;BME280;7218;51.480;7.006;2023-02-18T05:30:14;100896.53;;;11.77;100.00
14269;BME280;7218;51.480;7.006;2023-02-18T05:32:41;100897.69;;;11.53;100.00
14269;BME280;7218;51.480;7.006;2023-02-18T05:35:08;100889.38;;;11.89;100.00
14269;BME280;7218;51.480;7.006;2023-02-18T05:37:36;100888.84;;;11.63;100.00
14269;BME280;7218;51.480;7.006;2023-02-18T05:40:03;100878.69;;;11.43;100.00
14269;BME280;7218;51.480;7.006;2023-02-18T05:42:29;100872.44;;;12.13;100.00
14269;BME280;7218;51.480;7.006;2023-02-18T05:44:57;100867.75;;;11.80;100.00
14269;BME280;7218;51.480;7.006;2023-02-18T05:47:23;100863.50;;;12.26;100.00
14269;BME280;7218;51.480;7.006;2023-02-18T05:49:50;100862.41;;;11.87;100.00
14269;BME280;7218;51.480;7.006;2023-02-18T05:52:17;100854.94;;;12.17;100.00
14269;BME280;7218;51.480;7.006;2023-02-18T05:54:44;100841.34;;;11.96;100.00
14269;BME280;7218;51.480;7.006;2023-02-18T05:57:12;100844.09;;;11.90;100.00
14269;BME280;7218;51.480;7.006;2023-02-18T05:59:38;100853.03;;;11.73;100.00
14269;BME280;7218;51.480;7.006;2023-02-18T06:02:05;100853.38;;;12.06;100.00
14269;BME280;7218;51.480;7.006;2023-02-18T06:04:31;100841.97;;;12.11;100.00
14269;BME280;7218;51.480;7.006;2023-02-18T06:06:58;100843.56;;;12.21;100.00
14269;BME280;7218;51.480;7.006;2023-02-18T06:09:24;100860.78;;;11.80;100.00
14269;BME280;7218;51.480;7.006;2023-02-18T06:11:52;100847.19;;;12.11;100.00
14269;BME280;7218;51.480;7.006;2023-02-18T06:14:18;100852.72;;;11.94;100.00
14269;BME280;7218;51.480;7.006;2023-02-18T06:16:45;100844.09;;;11.87;100.00
14269;BME280;7218;51.480;7.006;2023-02-18T06:19:11;100839.13;;;11.69;100.00
14269;BME280;7218;51.480;7.006;2023-02-18T06:21:38;100832.03;;;11.80;100.00
14269;BME280;7218;51.480;7.006;2023-02-18T06:24:05;100836.47;;;11.72;100.00
14269;BME280;7218;51.480;7.006;2023-02-18T06:26:32;100837.94;;;11.93;100.00
14269;BME280;7218;51.480;7.006;2023-02-18T06:29:00;100836.81;;;12.07;100.00
14269;BME280;7218;51.480;7.006;2023-02-18T06:31:27;100841.16;;;12.08;100.00
14269;BME280;7218;51.480;7.006;2023-02-18T06:33:53;100832.34;;;11.56;100.00
14269;BME280;7218;51.480;7.006;2023-02-18T06:36:20;100832.88;;;12.34;100.00
14269;BME280;7218;51.480;7.006;2023-02-18T06:38:46;100844.25;;;11.78;100.00
14269;BME280;7218;51.480;7.006;2023-02-18T06:41:14;100842.84;;;12.11;100.00
14269;BME280;7218;51.480;7.006;2023-02-18T06:43:40;100839.91;;;11.79;100.00
14269;BME280;7218;51.480;7.006;2023-02-18T06:46:08;100846.47;;;12.02;100.00
14269;BME280;7218;51.480;7.006;2023-02-18T06:48:35;100835.53;;;11.79;100.00
14269;BME280;7218;51.480;7.006;2023-02-18T06:51:02;100847.41;;;12.00;100.00
14269;BME280;7218;51.480;7.006;2023-02-18T06:53:29;100839.09;;;11.75;100.00
14269;BME280;7218;51.480;7.006;2023-02-18T06:55:55;100852.16;;;12.29;100.00
14269;BME280;7218;51.480;7.006;2023-02-18T06:58:22;100846.19;;;11.64;100.00
14269;BME280;7218;51.480;7.006;2023-02-18T07:00:49;100845.25;;;11.66;100.00
14269;BME280;7218;51.480;7.006;2023-02-18T07:03:16;100848.03;;;11.56;100.00
14269;BME280;7218;51.480;7.006;2023-02-18T07:05:43;100840.47;;;11.97;100.00
14269;BME280;7218;51.480;7.006;2023-02-18T07:08:10;100836.66;;;11.60;100.00
14269;BME280;7218;51.480;7.006;2023-02-18T07:10:36;100828.88;;;12.12;100.00
14269;BME280;7218;51.480;7.006;2023-02-18T07:13:03;100823.09;;;11.93;100.00
14269;BME280;7218;51.480;7.006;2023-02-18T07:15:30;100840.56;;;11.91;100.00
14269;BME280;7218;51.480;7.006;2023-02-18T07:17:56;100839.03;;;11.78;100.00
14269;BME280;7218;51.480;7.006;2023-02-18T07:20:24;100838.34;;;11.62;100.00
14269;BME280;7218;51.480;7.006;2023-02-18T07:22:51;100843.97;;;11.96;100.00
14269;BME280;7218;51.480;7.006;2023-02-18T07:25:18;100835.53;;;12.31;100.00
14269;BME280;7218;51.480;7.006;2023-02-18T07:27:45;100844.88;;;11.95;100.00
14269;BME280;7218;51.480;7.006;2023-02-18T07:30:12;100856.16;;;11.97;100.00
14269;BME280;7218;51.480;7.006;2023-02-18T07:32:39;100863.44;;;11.77;100.00
14269;BME280;7218;51.480;7.006;2023-02-18T07:35:06;100852.81;;;11.88;100.00
14269;BME280;7218;51.480;7.006;2023-02-18T07:37:34;100845.69;;;11.97;100.00
14269;BME280;7218;51.480;7.006;2023-02-18T07:40:00;100858.66;;;12.03;100.00
14269;BME280;7218;51.480;7.006;2023-02-18T07:42:27;100856.28;;;11.88;100.00
14269;BME280;7218;51.480;7.006;2023-02-18T07:44:53;100857.00;;;11.98;100.00
14269;BME280;7218;51.480;7.006;2023-02-18T07:47:19;100867.41;;;12.01;100.00
14269;BME280;7218;51.480;7.006;2023-02-18T07:49:47;100859.47;;;12.08;100.00
14269;BME280;7218;51.480;7.006;2023-02-18T07:52:14;100839.06;;;12.30;100.00
14269;BME280;7218;51.480;7.006;2023-02-18T07:54:42;100848.13;;;12.10;100.00
14269;BME280;7218;51.480;7.006;2023-02-18T07:57:08;100852.75;;;11.91;100.00
14269;BME280;7218;51.480;7.006;2023-02-18T07:59:35;100862.94;;;12.07;100.00
14269;BME280;7218;51.480;7.006;2023-02-18T08:02:01;100852.75;;;11.91;100.00
14269;BME280;7218;51.480;7.006;2023-02-18T08:04:29;100866.00;;;12.34;100.00
14269;BME280;7218;51.480;7.006;2023-02-18T08:06:56;100884.50;;;12.22;100.00
14269;BME280;7218;51.480;7.006;2023-02-18T08:09:22;100883.81;;;12.11;100.00
14269;BME280;7218;51.480;7.006;2023-02-18T08:11:50;100879.53;;;12.06;100.00
14269;BME280;7218;51.480;7.006;2023-02-18T08:14:16;100885.69;;;12.01;100.00
14269;BME280;7218;51.480;7.006;2023-02-18T08:16:43;100878.22;;;12.33;100.00
14269;BME280;7218;51.480;7.006;2023-02-18T08:19:09;100877.59;;;11.58;100.00
14269;BME280;7218;51.480;7.006;2023-02-18T08:21:36;100879.59;;;12.02;100.00
14269;BME280;7218;51.480;7.006;2023-02-18T08:24:02;100871.00;;;11.95;100.00
14269;BME280;7218;51.480;7.006;2023-02-18T08:26:29;100874.78;;;11.72;100.00
14269;BME280;7218;51.480;7.006;2023-02-18T08:28:57;100884.56;;;11.57;100.00
14269;BME280;7218;51.480;7.006;2023-02-18T08:31:25;100872.19;;;11.73;100.00
14269;BME280;7218;51.480;7.006;2023-02-18T08:33:53;100867.00;;;11.70;100.00
14269;BME280;7218;51.480;7.006;2023-02-18T08:36:20;100852.72;;;11.95;100.00
14269;BME280;7218;51.480;7.006;2023-02-18T08:38:47;100870.31;;;11.84;100.00
14269;BME280;7218;51.480;7.006;2023-02-18T08:41:14;100877.84;;;12.01;100.00
14269;BME280;7218;51.480;7.006;2023-02-18T08:43:43;100884.06;;;11.95;100.00
14269;BME280;7218;51.480;7.006;2023-02-18T08:46:11;100878.47;;;12.17;100.00
14269;BME280;7218;51.480;7.006;2023-02-18T08:48:37;100864.00;;;11.96;100.00
14269;BME280;7218;51.480;7.006;2023-02-18T08:51:12;100865.94;;;11.85;100.00
14269;BME280;7218;51.480;7.006;2023-02-18T08:53:39;100889.19;;;11.39;100.00
14269;BME280;7218;51.480;7.006;2023-02-18T08:56:06;100866.28;;;11.57;100.00
14269;BME280;7218;51.480;7.006;2023-02-18T08:58:34;100881.38;;;11.36;100.00
14269;BME280;7218;51.480;7.006;2023-02-18T09:01:01;100894.72;;;11.11;100.00
14269;BME280;7218;51.480;7.006;2023-02-18T09:03:29;100877.31;;;11.13;100.00
14269;BME280;7218;51.480;7.006;2023-02-18T09:05:56;100877.53;;;11.65;100.00
14269;BME280;7218;51.480;7.006;2023-02-18T09:08:24;100872.53;;;11.47;100.00
14269;BME280;7218;51.480;7.006;2023-02-18T09:10:54;100860.91;;;11.68;100.00
14269;BME280;7218;51.480;7.006;2023-02-18T09:13:20;100874.66;;;11.85;100.00
14269;BME280;7218;51.480;7.006;2023-02-18T09:15:55;100874.81;;;11.73;100.00
14269;BME280;7218;51.480;7.006;2023-02-18T09:18:21;100861.41;;;11.35;100.00
14269;BME280;7218;51.480;7.006;2023-02-18T09:20:49;100864.47;;;11.64;100.00
14269;BME280;7218;51.480;7.006;2023-02-18T09:23:15;100868.63;;;11.80;100.00
14269;BME280;7218;51.480;7.006;2023-02-18T09:25:42;100868.66;;;11.76;100.00
14269;BME280;7218;51.480;7.006;2023-02-18T09:28:09;100870.31;;;11.18;100.00
14269;BME280;7218;51.480;7.006;2023-02-18T09:30:35;100864.69;;;11.49;100.00
14269;BME280;7218;51.480;7.006;2023-02-18T09:33:04;100886.06;;;11.80;100.00
14269;BME280;7218;51.480;7.006;2023-02-18T09:35:30;100873.72;;;11.88;100.00
14269;BME280;7218;51.480;7.006;2023-02-18T09:37:58;100867.03;;;11.67;100.00
14269;BME280;7218;51.480;7.006;2023-02-18T09:40:27;100873.25;;;12.17;100.00
14269;BME280;7218;51.480;7.006;2023-02-18T09:42:57;100868.91;;;12.16;100.00
14269;BME280;7218;51.480;7.006;2023-02-18T09:45:24;100852.22;;;11.66;100.00
14269;BME280;7218;51.480;7.006;2023-02-18T09:47:51;100864.47;;;11.65;100.00
14269;BME280;7218;51.480;7.006;2023-02-18T09:50:20;100882.75;;;11.64;100.00
14269;BME280;7218;51.480;7.006;2023-02-18T09:52:47;100874.03;;;11.65;100.00
14269;BME280;7218;51.480;7.006;2023-02-18T09:55:17;100866.53;;;12.02;99.97
14269;BME280;7218;51.480;7.006;2023-02-18T09:57:49;100883.16;;;11.98;100.00
14269;BME280;7218;51.480;7.006;2023-02-18T10:00:19;100885.25;;;11.72;100.00
14269;BME280;7218;51.480;7.006;2023-02-18T10:02:53;100874.50;;;11.93;100.00
14269;BME280;7218;51.480;7.006;2023-02-18T10:05:22;100864.78;;;12.01;99.84
14269;BME280;7218;51.480;7.006;2023-02-18T10:07:50;100864.84;;;11.99;99.87
14269;BME280;7218;51.480;7.006;2023-02-18T10:10:26;100853.69;;;11.88;100.00
14269;BME280;7218;51.480;7.006;2023-02-18T10:12:57;100852.44;;;12.11;99.37
14269;BME280;7218;51.480;7.006;2023-02-18T10:15:27;100866.34;;;12.14;99.37
14269;BME280;7218;51.480;7.006;2023-02-18T10:17:55;100857.09;;;11.92;100.00
14269;BME280;7218;51.480;7.006;2023-02-18T10:20:24;100868.81;;;11.65;100.00
14269;BME280;7218;51.480;7.006;2023-02-18T10:22:53;100870.72;;;11.51;100.00
14269;BME280;7218;51.480;7.006;2023-02-18T10:25:23;100870.31;;;11.81;100.00
14269;BME280;7218;51.480;7.006;2023-02-18T10:27:51;100875.88;;;11.58;100.00
14269;BME280;7218;51.480;7.006;2023-02-18T10:30:22;100875.88;;;11.57;100.00
14269;BME280;7218;51.480;7.006;2023-02-18T10:32:54;100879.81;;;11.90;100.00
14269;BME280;7218;51.480;7.006;2023-02-18T10:35:24;100878.97;;;11.86;100.00
14269;BME280;7218;51.480;7.006;2023-02-18T10:38:01;100879.16;;;11.71;100.00
14269;BME280;7218;51.480;7.006;2023-02-18T10:40:37;100887.38;;;11.45;100.00
14269;BME280;7218;51.480;7.006;2023-02-18T10:43:15;100896.47;;;11.81;100.00
14269;BME280;7218;51.480;7.006;2023-02-18T10:45:47;100881.28;;;11.45;100.00
14269;BME280;7218;51.480;7.006;2023-02-18T10:48:31;100896.50;;;11.78;100.00
14269;BME280;7218;51.480;7.006;2023-02-18T10:51:11;100905.59;;;11.48;100.00
14269;BME280;7218;51.480;7.006;2023-02-18T10:53:41;100897.63;;;11.59;100.00
14269;BME280;7218;51.480;7.006;2023-02-18T10:56:31;100907.25;;;11.55;100.00
14269;BME280;7218;51.480;7.006;2023-02-18T10:59:03;100915.75;;;11.74;100.00
14269;BME280;7218;51.480;7.006;2023-02-18T11:01:31;100915.31;;;11.39;100.00
14269;BME280;7218;51.480;7.006;2023-02-18T11:04:09;100913.16;;;11.70;100.00
14269;BME280;7218;51.480;7.006;2023-02-18T11:06:39;100922.06;;;11.55;100.00
14269;BME280;7218;51.480;7.006;2023-02-18T11:09:10;100922.88;;;11.57;100.00
14269;BME280;7218;51.480;7.006;2023-02-18T11:11:46;100910.97;;;11.38;100.00
14269;BME280;7218;51.480;7.006;2023-02-18T11:14:15;100923.13;;;11.39;100.00
14269;BME280;7218;51.480;7.006;2023-02-18T11:17:09;100922.81;;;11.63;100.00
14269;BME280;7218;51.480;7.006;2023-02-18T11:19:40;100934.97;;;10.95;100.00
14269;BME280;7218;51.480;7.006;2023-02-18T11:22:13;100918.84;;;11.33;100.00
14269;BME280;7218;51.480;7.006;2023-02-18T11:24:41;100903.00;;;11.47;100.00
14269;BME280;7218;51.480;7.006;2023-02-18T11:27:19;100907.16;;;11.63;100.00
14269;BME280;7218;51.480;7.006;2023-02-18T11:29:49;100911.50;;;11.62;100.00
14269;BME280;7218;51.480;7.006;2023-02-18T11:32:16;100916.88;;;11.52;100.00
14269;BME280;7218;51.480;7.006;2023-02-18T11:34:43;100916.13;;;11.41;100.00
14269;BME280;7218;51.480;7.006;2023-02-18T11:37:12;100910.44;;;11.80;100.00
14269;BME280;7218;51.480;7.006;2023-02-18T11:39:44;100907.91;;;11.73;100.00
14269;BME280;7218;51.480;7.006;2023-02-18T11:42:14;100906.75;;;11.93;100.00
14269;BME280;7218;51.480;7.006;2023-02-18T11:44:48;100912.94;;;11.86;100.00
14269;BME280;7218;51.480;7.006;2023-02-18T11:47:24;100907.06;;;11.68;100.00
14269;BME280;7218;51.480;7.006;2023-02-18T11:50:14;100912.19;;;11.77;100.00
14269;BME280;7218;51.480;7.006;2023-02-18T11:52:44;100907.28;;;11.54;100.00
14269;BME280;7218;51.480;7.006;2023-02-18T11:55:16;100912.41;;;11.60;100.00
14269;BME280;7218;51.480;7.006;2023-02-18T11:57:49;100918.53;;;11.59;100.00
14269;BME280;7218;51.480;7.006;2023-02-18T12:00:22;100902.84;;;10.90;100.00
14269;BME280;7218;51.480;7.006;2023-02-18T12:02:51;100908.19;;;11.50;100.00
14269;BME280;7218;51.480;7.006;2023-02-18T12:05:22;100906.53;;;11.43;100.00
14269;BME280;7218;51.480;7.006;2023-02-18T12:07:50;100899.13;;;11.77;100.00
14269;BME280;7218;51.480;7.006;2023-02-18T12:10:25;100913.72;;;11.93;100.00
14269;BME280;7218;51.480;7.006;2023-02-18T12:12:59;100911.00;;;11.35;100.00
14269;BME280;7218;51.480;7.006;2023-02-18T12:15:33;100913.19;;;11.66;100.00
14269;BME280;7218;51.480;7.006;2023-02-18T12:18:15;100913.25;;;12.23;100.00
14269;BME280;7218;51.480;7.006;2023-02-18T12:20:54;100907.84;;;11.76;100.00
14269;BME280;7218;51.480;7.006;2023-02-18T12:23:29;100907.16;;;11.61;100.00
14269;BME280;7218;51.480;7.006;2023-02-18T12:26:02;100907.00;;;11.72;100.00
14269;BME280;7218;51.480;7.006;2023-02-18T12:28:45;100907.44;;;12.04;100.00
14269;BME280;7218;51.480;7.006;2023-02-18T12:34:24;100899.03;;;11.84;100.00
14269;BME280;7218;51.480;7.006;2023-02-18T12:37:04;100908.34;;;11.39;100.00
14269;BME280;7218;51.480;7.006;2023-02-18T12:39:50;100907.03;;;11.75;100.00
14269;BME280;7218;51.480;7.006;2023-02-18T12:42:28;100901.03;;;11.65;100.00
14269;BME280;7218;51.480;7.006;2023-02-18T12:45:22;100898.44;;;11.62;100.00
14269;BME280;7218;51.480;7.006;2023-02-18T12:51:12;100887.38;;;11.44;100.00
14269;BME280;7218;51.480;7.006;2023-02-18T12:53:51;100878.28;;;11.72;100.00
14269;BME280;7218;51.480;7.006;2023-02-18T12:56:33;100886.19;;;11.66;100.00
14269;BME280;7218;51.480;7.006;2023-02-18T12:59:08;100888.69;;;11.77;100.00
14269;BME280;7218;51.480;7.006;2023-02-18T13:01:55;100889.19;;;12.01;100.00
14269;BME280;7218;51.480;7.006;2023-02-18T13:04:53;100884.44;;;11.68;100.00
14269;BME280;7218;51.480;7.006;2023-02-18T13:07:59;100889.34;;;11.91;100.00
14269;BME280;7218;51.480;7.006;2023-02-18T13:10:51;100887.59;;;11.91;100.00
14269;BME280;7218;51.480;7.006;2023-02-18T13:13:23;100887.31;;;11.50;100.00